Time;durP1;ratioP1;P1;durP2;ratioP2;P2;SDS_P1;SDS_P2;PMS_P1;PMS_P2;Temp;Humidity;BMP_temperature;BMP_pressure;BME280_temperature;BME280_humidity;BME280_pressure;Samples;Min_cycle;Max_cycle;Signal;HPM_P1;HPM_P2
2023/06/09 00:01:49;;;;;;;5.13;4.70;;;;;;;;;;5074446;28;20205;-90
2023/06/09 00:04:17;;;;;;;5.47;5.07;;;;;;;;;;5072020;28;20195;-90
2023/06/09 00:06:44;;;;;;;5.28;4.78;;;;;;;;;;5070091;28;20231;-90
2023/06/09 00:09:11;;;;;;;5.10;4.68;;;;;;;;;;5068951;28;20214;-90
2023/06/09 00:11:39;;;;;;;5.47;4.97;;;;;;;;;;5067972;28;20239;-90
2023/06/09 00:14:08;;;;;;;5.57;5.05;;;;;;;;;;5069665;28;20294;-90
2023/06/09 00:16:37;;;;;;;4.97;4.57;;;;;;;;;;5072246;28;20203;-91
2023/06/09 00:19:09;;;;;;;5.70;5.20;;;;;;;;;;5072763;28;20231;-90
2023/06/09 00:21:37;;;;;;;5.85;5.32;;;;;;;;;;5070991;28;20211;-90
2023/06/09 00:24:04;;;;;;;5.57;5.10;;;;;;;;;;5066520;28;20261;-91
2023/06/09 00:26:32;;;;;;;5.15;4.65;;;;;;;;;;5077909;28;20199;-90
2023/06/09 00:28:59;;;;;;;5.13;4.72;;;;;;;;;;5074998;28;20215;-90
2023/06/09 00:31:28;;;;;;;5.35;4.90;;;;;;;;;;5074381;28;20225;-91
2023/06/09 00:33:55;;;;;;;6.00;5.32;;;;;;;;;;5077686;28;20207;-90
2023/06/09 00:36:22;;;;;;;5.95;5.47;;;;;;;;;;5072447;28;20213;-90
2023/06/09 00:38:49;;;;;;;5.13;4.63;;;;;;;;;;5071044;28;20207;-90
2023/06/09 00:41:17;;;;;;;5.65;5.18;;;;;;;;;;5077097;28;20199;-90
2023/06/09 00:43:46;;;;;;;5.57;5.07;;;;;;;;;;5074605;28;20226;-91
2023/06/09 00:46:13;;;;;;;5.88;5.30;;;;;;;;;;5074494;28;20207;-90
2023/06/09 00:48:42;;;;;;;4.65;4.28;;;;;;;;;;5075604;28;20215;-90
2023/06/09 00:51:09;;;;;;;5.80;4.95;;;;;;;;;;5075952;28;20213;-90
2023/06/09 00:53:37;;;;;;;5.45;4.95;;;;;;;;;;5071241;28;20297;-90
2023/06/09 00:56:05;;;;;;;5.30;4.90;;;;;;;;;;5074662;28;20298;-90
2023/06/09 00:58:33;;;;;;;5.00;4.43;;;;;;;;;;5077996;28;20210;-90
2023/06/09 01:01:01;;;;;;;5.60;5.05;;;;;;;;;;5080231;28;20285;-90
2023/06/09 01:03:28;;;;;;;5.57;5.10;;;;;;;;;;5078921;28;20227;-90
2023/06/09 01:06:00;;;;;;;5.43;4.90;;;;;;;;;;5060321;28;20214;-90
2023/06/09 01:08:33;;;;;;;5.50;5.00;;;;;;;;;;5075875;28;20195;-90
2023/06/09 01:11:04;;;;;;;5.70;5.15;;;;;;;;;;5073416;28;20195;-90
2023/06/09 01:13:38;;;;;;;6.18;5.20;;;;;;;;;;5074901;28;20215;-90
2023/06/09 01:16:07;;;;;;;5.15;4.75;;;;;;;;;;5074473;28;20201;-91
2023/06/09 01:18:36;;;;;;;6.60;4.80;;;;;;;;;;5069707;28;20231;-90
2023/06/09 01:21:12;;;;;;;6.85;4.60;;;;;;;;;;5070490;28;20210;-90
2023/06/09 01:23:44;;;;;;;4.63;4.25;;;;;;;;;;5078038;28;20248;-90
2023/06/09 01:26:14;;;;;;;5.65;4.53;;;;;;;;;;5076636;28;20260;-90
2023/06/09 01:28:43;;;;;;;5.22;4.82;;;;;;;;;;5070563;28;20213;-90
2023/06/09 01:31:11;;;;;;;5.32;4.82;;;;;;;;;;5074218;28;20218;-90
2023/06/09 01:33:39;;;;;;;5.18;4.68;;;;;;;;;;5075705;28;20206;-90
2023/06/09 01:36:06;;;;;;;5.45;4.95;;;;;;;;;;5075104;28;20207;-90
2023/06/09 01:38:34;;;;;;;5.13;4.72;;;;;;;;;;5071919;28;20207;-90
2023/06/09 01:41:01;;;;;;;5.15;4.75;;;;;;;;;;5072689;28;20207;-90
2023/06/09 01:43:30;;;;;;;5.25;4.50;;;;;;;;;;5071775;28;20217;-90
2023/06/09 01:45:57;;;;;;;5.63;4.93;;;;;;;;;;5073929;28;20262;-90
2023/06/09 01:48:29;;;;;;;4.97;4.28;;;;;;;;;;5076952;28;20198;-90
2023/06/09 01:50:58;;;;;;;5.60;4.53;;;;;;;;;;5072986;28;20213;-90
2023/06/09 01:53:28;;;;;;;5.18;4.40;;;;;;;;;;5074761;28;20211;-91
2023/06/09 01:55:57;;;;;;;7.35;4.70;;;;;;;;;;5075263;28;20198;-90
2023/06/09 01:58:25;;;;;;;4.80;4.32;;;;;;;;;;5067670;28;20214;-90
2023/06/09 02:00:54;;;;;;;4.82;4.43;;;;;;;;;;5063251;28;20203;-90
2023/06/09 02:03:22;;;;;;;4.78;4.43;;;;;;;;;;5074524;28;20302;-90
2023/06/09 02:05:50;;;;;;;6.25;4.70;;;;;;;;;;5072627;28;20215;-90
2023/06/09 02:08:18;;;;;;;5.93;4.97;;;;;;;;;;5071957;28;20195;-90
2023/06/09 02:10:45;;;;;;;4.95;4.55;;;;;;;;;;5067545;28;20237;-91
2023/06/09 02:13:13;;;;;;;5.00;4.60;;;;;;;;;;5068122;28;20206;-90
2023/06/09 02:15:40;;;;;;;4.80;4.40;;;;;;;;;;5076496;28;20211;-90
2023/06/09 02:18:11;;;;;;;5.97;4.35;;;;;;;;;;5072849;28;20244;-90
2023/06/09 02:20:39;;;;;;;5.30;4.90;;;;;;;;;;5076137;28;20202;-90
2023/06/09 02:23:06;;;;;;;4.80;4.30;;;;;;;;;;5065277;28;20364;-90
2023/06/09 02:25:34;;;;;;;4.97;4.30;;;;;;;;;;5072389;28;20207;-90
2023/06/09 02:28:03;;;;;;;5.43;4.93;;;;;;;;;;5072848;28;20190;-90
2023/06/09 02:30:30;;;;;;;5.20;4.72;;;;;;;;;;5072694;28;20209;-90
2023/06/09 02:32:58;;;;;;;5.07;4.40;;;;;;;;;;5075772;28;20209;-90
2023/06/09 02:35:27;;;;;;;4.82;4.43;;;;;;;;;;5068786;28;20205;-90
2023/06/09 02:37:54;;;;;;;4.35;3.95;;;;;;;;;;5071251;28;20198;-90
2023/06/09 02:40:21;;;;;;;5.53;4.63;;;;;;;;;;5068995;28;20209;-90
2023/06/09 02:42:49;;;;;;;4.78;4.38;;;;;;;;;;5072086;28;20199;-90
2023/06/09 02:45:16;;;;;;;4.82;4.35;;;;;;;;;;5075391;28;20207;-90
2023/06/09 02:47:44;;;;;;;5.20;4.80;;;;;;;;;;5074279;28;20277;-90
2023/06/09 02:50:11;;;;;;;5.35;4.85;;;;;;;;;;5057367;28;20203;-90
2023/06/09 02:52:42;;;;;;;5.05;4.65;;;;;;;;;;5073361;28;20290;-90
2023/06/09 02:55:11;;;;;;;5.93;5.05;;;;;;;;;;5068440;28;20210;-90
2023/06/09 02:57:38;;;;;;;5.40;4.68;;;;;;;;;;5067547;28;20291;-90
2023/06/09 03:00:08;;;;;;;5.20;4.70;;;;;;;;;;5068657;28;20280;-90
2023/06/09 03:02:36;;;;;;;5.68;5.07;;;;;;;;;;5073269;28;20205;-90
2023/06/09 03:05:05;;;;;;;5.70;5.20;;;;;;;;;;5066449;28;20227;-90
2023/06/09 03:07:32;;;;;;;7.63;5.28;;;;;;;;;;5080296;28;20199;-90
2023/06/09 03:10:01;;;;;;;6.65;5.57;;;;;;;;;;5074015;28;20217;-90
2023/06/09 03:12:28;;;;;;;5.38;4.85;;;;;;;;;;5074271;28;20218;-90
2023/06/09 03:14:56;;;;;;;4.95;4.50;;;;;;;;;;5072952;28;20209;-89
2023/06/09 03:17:24;;;;;;;6.05;4.95;;;;;;;;;;5070728;28;20202;-90
2023/06/09 03:19:52;;;;;;;5.78;5.28;;;;;;;;;;5074775;28;20230;-90
2023/06/09 03:22:20;;;;;;;5.40;5.00;;;;;;;;;;5075812;28;20203;-90
2023/06/09 03:24:48;;;;;;;5.47;4.97;;;;;;;;;;5065583;28;20319;-90
2023/06/09 03:27:17;;;;;;;5.18;4.68;;;;;;;;;;5063354;28;20207;-90
2023/06/09 03:29:44;;;;;;;7.03;5.65;;;;;;;;;;5068050;28;20290;-90
2023/06/09 03:32:11;;;;;;;7.03;5.47;;;;;;;;;;5079673;28;20213;-89
2023/06/09 03:34:40;;;;;;;5.45;5.07;;;;;;;;;;5069552;28;20290;-90
2023/06/09 03:37:09;;;;;;;6.35;5.75;;;;;;;;;;5071846;28;20206;-90
2023/06/09 03:39:36;;;;;;;5.65;5.10;;;;;;;;;;5070665;28;20303;-90
2023/06/09 03:42:04;;;;;;;6.75;5.35;;;;;;;;;;5073451;28;20191;-90
2023/06/09 03:44:33;;;;;;;5.30;4.90;;;;;;;;;;5069561;28;20219;-89
2023/06/09 03:47:00;;;;;;;5.75;5.30;;;;;;;;;;5071748;28;20216;-89
2023/06/09 03:49:27;;;;;;;5.22;4.78;;;;;;;;;;5071733;28;20199;-90
2023/06/09 03:51:54;;;;;;;5.38;4.97;;;;;;;;;;5070200;28;20209;-90
2023/06/09 03:54:22;;;;;;;5.38;4.90;;;;;;;;;;5074836;28;20270;-89
2023/06/09 03:56:49;;;;;;;6.28;5.68;;;;;;;;;;5080589;28;20198;-89
2023/06/09 03:59:16;;;;;;;6.18;5.30;;;;;;;;;;5057965;28;20206;-90
2023/06/09 04:01:45;;;;;;;6.05;5.55;;;;;;;;;;5075480;28;20209;-89
2023/06/09 04:04:13;;;;;;;5.60;5.07;;;;;;;;;;5075817;28;20226;-90
2023/06/09 04:06:45;;;;;;;6.18;5.63;;;;;;;;;;5076972;28;20209;-90
2023/06/09 04:09:13;;;;;;;5.60;5.10;;;;;;;;;;5074780;28;20203;-90
2023/06/09 04:11:41;;;;;;;6.07;5.47;;;;;;;;;;5078463;28;20210;-90
2023/06/09 04:14:08;;;;;;;6.38;5.97;;;;;;;;;;5075060;28;20214;-89
2023/06/09 04:16:36;;;;;;;5.88;5.45;;;;;;;;;;5075699;28;20205;-90
2023/06/09 04:19:05;;;;;;;6.28;5.70;;;;;;;;;;5071233;28;20234;-89
2023/06/09 04:21:32;;;;;;;5.72;5.15;;;;;;;;;;5076102;28;20203;-90
2023/06/09 04:24:00;;;;;;;5.95;5.35;;;;;;;;;;5074970;28;20272;-90
2023/06/09 04:26:27;;;;;;;7.18;5.43;;;;;;;;;;5073565;28;20241;-90
2023/06/09 04:28:55;;;;;;;6.72;5.72;;;;;;;;;;5079087;28;20199;-89
2023/06/09 04:31:23;;;;;;;5.90;5.40;;;;;;;;;;5068222;28;20226;-89
2023/06/09 04:33:51;;;;;;;5.80;5.30;;;;;;;;;;5081254;28;20202;-89
2023/06/09 04:36:20;;;;;;;6.78;4.97;;;;;;;;;;5077603;28;20276;-90
2023/06/09 04:38:48;;;;;;;6.03;5.40;;;;;;;;;;5083071;28;20213;-90
2023/06/09 04:41:17;;;;;;;6.32;5.90;;;;;;;;;;5074135;28;20199;-89
2023/06/09 04:43:44;;;;;;;6.53;5.65;;;;;;;;;;5078208;28;20222;-89
2023/06/09 04:46:12;;;;;;;6.38;5.80;;;;;;;;;;5071511;28;20213;-89
2023/06/09 04:48:41;;;;;;;5.40;5.00;;;;;;;;;;5071137;28;20195;-89
2023/06/09 04:51:10;;;;;;;5.82;5.22;;;;;;;;;;5074863;28;20233;-90
2023/06/09 04:53:39;;;;;;;6.07;5.50;;;;;;;;;;5072453;28;20304;-89
2023/06/09 04:56:08;;;;;;;5.55;5.07;;;;;;;;;;5077216;28;20226;-90
2023/06/09 04:58:36;;;;;;;5.68;4.75;;;;;;;;;;5072822;28;20202;-89
2023/06/09 05:01:03;;;;;;;5.90;5.40;;;;;;;;;;5071152;28;20290;-90
2023/06/09 05:03:30;;;;;;;7.65;5.25;;;;;;;;;;5076267;28;20202;-90
2023/06/09 05:05:58;;;;;;;5.45;4.95;;;;;;;;;;5050061;28;20208;-89
2023/06/09 05:08:25;;;;;;;4.93;4.43;;;;;;;;;;5068929;28;20290;-90
2023/06/09 05:10:54;;;;;;;5.32;4.82;;;;;;;;;;5061927;28;20199;-89
2023/06/09 05:13:21;;;;;;;4.95;4.55;;;;;;;;;;5075917;28;20258;-90
2023/06/09 05:15:49;;;;;;;5.00;4.60;;;;;;;;;;5075254;28;20270;-89
2023/06/09 05:18:19;;;;;;;5.10;4.60;;;;;;;;;;5072120;28;20232;-89
2023/06/09 05:20:46;;;;;;;5.43;5.03;;;;;;;;;;5075020;28;20198;-89
2023/06/09 05:23:13;;;;;;;4.88;4.53;;;;;;;;;;5070893;28;20210;-90
2023/06/09 05:25:41;;;;;;;4.80;4.45;;;;;;;;;;5081473;28;20310;-90
2023/06/09 05:28:09;;;;;;;5.28;4.82;;;;;;;;;;5066178;28;20542;-90
2023/06/09 05:30:37;;;;;;;5.50;5.00;;;;;;;;;;5077019;28;20207;-89
2023/06/09 05:33:04;;;;;;;5.78;5.20;;;;;;;;;;5065805;28;20207;-89
2023/06/09 05:35:31;;;;;;;5.22;4.82;;;;;;;;;;5073523;28;20253;-89
2023/06/09 05:37:58;;;;;;;5.32;4.93;;;;;;;;;;5074270;28;20434;-89
2023/06/09 05:40:26;;;;;;;5.07;4.68;;;;;;;;;;5069837;28;20206;-89
2023/06/09 05:42:53;;;;;;;4.82;4.47;;;;;;;;;;5073879;28;20203;-89
2023/06/09 05:45:22;;;;;;;5.70;5.10;;;;;;;;;;5073578;28;20215;-89
2023/06/09 05:47:50;;;;;;;5.13;4.72;;;;;;;;;;5078873;28;20203;-89
2023/06/09 05:50:17;;;;;;;5.40;4.90;;;;;;;;;;5075338;28;20198;-89
2023/06/09 05:52:45;;;;;;;5.03;4.70;;;;;;;;;;5069709;28;20205;-89
2023/06/09 05:55:12;;;;;;;5.25;4.75;;;;;;;;;;5062585;28;20228;-89
2023/06/09 05:57:40;;;;;;;5.75;5.18;;;;;;;;;;5077816;28;20262;-89
2023/06/09 06:00:09;;;;;;;5.10;4.80;;;;;;;;;;5091152;28;20198;-89
2023/06/09 06:02:39;;;;;;;5.20;4.80;;;;;;;;;;5071179;28;20211;-90
2023/06/09 06:05:06;;;;;;;4.82;4.43;;;;;;;;;;5074857;28;20219;-90
2023/06/09 06:07:36;;;;;;;5.05;4.65;;;;;;;;;;5082342;28;20190;-90
2023/06/09 06:10:04;;;;;;;4.97;4.43;;;;;;;;;;5053916;28;20210;-90
2023/06/09 06:12:31;;;;;;;4.95;4.55;;;;;;;;;;5069768;28;20206;-89
2023/06/09 06:14:59;;;;;;;5.90;4.15;;;;;;;;;;5074247;28;20211;-89
2023/06/09 06:17:27;;;;;;;4.43;4.10;;;;;;;;;;5072653;28;20202;-89
2023/06/09 06:19:56;;;;;;;4.65;4.30;;;;;;;;;;5075867;28;20223;-89
2023/06/09 06:22:23;;;;;;;5.28;4.78;;;;;;;;;;5072210;28;20206;-89
2023/06/09 06:24:50;;;;;;;4.97;4.55;;;;;;;;;;5072695;28;20218;-90
2023/06/09 06:27:19;;;;;;;5.18;4.78;;;;;;;;;;5054549;28;20222;-90
2023/06/09 06:29:46;;;;;;;4.90;4.53;;;;;;;;;;5068585;28;20207;-89
2023/06/09 06:32:14;;;;;;;5.00;4.55;;;;;;;;;;5055064;28;20194;-89
2023/06/09 06:34:41;;;;;;;4.50;4.20;;;;;;;;;;5071645;28;20223;-90
2023/06/09 06:37:11;;;;;;;5.20;4.70;;;;;;;;;;5055370;28;20209;-91
2023/06/09 06:39:38;;;;;;;4.50;4.20;;;;;;;;;;5074559;28;20284;-91
2023/06/09 06:42:06;;;;;;;4.63;4.32;;;;;;;;;;5045017;28;20195;-91
2023/06/09 06:44:34;;;;;;;5.20;4.40;;;;;;;;;;5075508;28;20215;-90
2023/06/09 06:47:01;;;;;;;4.68;4.28;;;;;;;;;;5064848;28;20233;-90
2023/06/09 06:49:31;;;;;;;4.60;4.20;;;;;;;;;;5070960;28;20196;-90
2023/06/09 06:52:01;;;;;;;5.47;4.47;;;;;;;;;;5064986;28;20260;-91
2023/06/09 06:54:33;;;;;;;4.65;4.20;;;;;;;;;;5052504;28;20207;-89
2023/06/09 06:57:02;;;;;;;4.53;4.13;;;;;;;;;;5031092;28;20198;-89
2023/06/09 06:59:30;;;;;;;4.13;3.83;;;;;;;;;;5069086;28;20203;-90
2023/06/09 07:01:57;;;;;;;4.20;3.90;;;;;;;;;;5067972;28;20198;-92
2023/06/09 07:04:26;;;;;;;5.35;4.30;;;;;;;;;;5056995;28;20222;-90
2023/06/09 07:06:53;;;;;;;4.53;4.22;;;;;;;;;;5050034;28;20278;-90
2023/06/09 07:09:21;;;;;;;4.30;3.90;;;;;;;;;;5070123;28;20213;-91
2023/06/09 07:11:50;;;;;;;4.88;4.45;;;;;;;;;;5072149;28;20210;-91
2023/06/09 07:14:17;;;;;;;5.00;4.60;;;;;;;;;;5072559;28;20205;-90
2023/06/09 07:16:44;;;;;;;5.07;4.53;;;;;;;;;;5058982;28;20207;-90
2023/06/09 07:19:12;;;;;;;5.65;4.53;;;;;;;;;;5055027;28;20317;-91
2023/06/09 07:21:39;;;;;;;4.60;4.30;;;;;;;;;;5072643;28;20203;-89
2023/06/09 07:24:06;;;;;;;4.97;4.57;;;;;;;;;;5073449;28;20206;-90
2023/06/09 07:26:34;;;;;;;4.60;4.20;;;;;;;;;;5072272;28;20211;-91
2023/06/09 07:29:03;;;;;;;4.45;3.75;;;;;;;;;;5069135;28;20244;-91
2023/06/09 07:31:30;;;;;;;5.15;4.68;;;;;;;;;;5069803;28;20209;-90
2023/06/09 07:33:58;;;;;;;4.15;3.80;;;;;;;;;;5072912;28;20385;-91
2023/06/09 07:36:29;;;;;;;5.32;4.63;;;;;;;;;;5067132;28;20203;-91
2023/06/09 07:38:57;;;;;;;3.97;3.78;;;;;;;;;;5069422;28;20260;-92
2023/06/09 07:41:28;;;;;;;4.45;4.05;;;;;;;;;;5069435;28;20207;-91
2023/06/09 07:43:56;;;;;;;4.15;3.75;;;;;;;;;;5068997;28;20202;-92
2023/06/09 07:46:25;;;;;;;4.40;4.10;;;;;;;;;;5067913;28;20223;-93
2023/06/09 07:48:52;;;;;;;4.22;3.92;;;;;;;;;;5057293;28;20203;-93
2023/06/09 07:51:21;;;;;;;4.32;4.03;;;;;;;;;;5053511;28;20199;-92
2023/06/09 07:53:48;;;;;;;4.10;3.80;;;;;;;;;;5068713;28;20203;-94
2023/06/09 07:56:16;;;;;;;3.95;3.75;;;;;;;;;;5069085;28;20198;-93
2023/06/09 07:58:43;;;;;;;4.80;4.40;;;;;;;;;;5066789;28;20206;-92
2023/06/09 08:01:10;;;;;;;4.00;3.70;;;;;;;;;;5065328;28;20191;-94
2023/06/09 08:03:39;;;;;;;4.65;4.13;;;;;;;;;;5065864;28;20214;-92
2023/06/09 08:06:08;;;;;;;3.85;3.53;;;;;;;;;;5068339;28;20225;-92
2023/06/09 08:08:37;;;;;;;4.35;3.70;;;;;;;;;;5071572;28;20211;-91
2023/06/09 08:11:04;;;;;;;4.60;3.83;;;;;;;;;;5071386;28;20203;-93
2023/06/09 08:13:31;;;;;;;3.80;3.55;;;;;;;;;;5073099;28;20294;-93
2023/06/09 08:15:58;;;;;;;4.53;3.90;;;;;;;;;;5070124;28;20195;-92
2023/06/09 08:18:26;;;;;;;4.10;3.80;;;;;;;;;;5070513;28;20330;-92
2023/06/09 08:20:55;;;;;;;4.60;4.20;;;;;;;;;;5072190;28;20229;-92
2023/06/09 08:23:22;;;;;;;3.90;3.60;;;;;;;;;;5072002;28;20233;-91
2023/06/09 08:25:50;;;;;;;3.95;3.65;;;;;;;;;;5053463;28;20218;-91
2023/06/09 08:28:17;;;;;;;4.05;3.38;;;;;;;;;;5066400;28;20203;-92
2023/06/09 08:30:45;;;;;;;4.13;3.83;;;;;;;;;;5061971;28;20210;-92
2023/06/09 08:33:12;;;;;;;4.00;3.60;;;;;;;;;;5070201;28;20321;-93
2023/06/09 08:35:40;;;;;;;4.68;3.60;;;;;;;;;;5069594;28;20207;-92
2023/06/09 08:38:09;;;;;;;4.35;3.72;;;;;;;;;;5071273;28;20198;-92
2023/06/09 08:40:36;;;;;;;3.97;3.70;;;;;;;;;;5065459;28;20191;-89
2023/06/09 08:43:05;;;;;;;4.18;3.78;;;;;;;;;;5072847;28;20270;-91
2023/06/09 08:45:35;;;;;;;3.75;3.42;;;;;;;;;;5072172;28;20253;-92
2023/06/09 08:48:03;;;;;;;5.28;3.88;;;;;;;;;;5066089;28;20298;-92
2023/06/09 08:50:32;;;;;;;3.70;3.40;;;;;;;;;;5065710;28;20214;-91
2023/06/09 08:52:59;;;;;;;3.70;3.50;;;;;;;;;;5071084;28;20230;-92
2023/06/09 08:55:28;;;;;;;3.95;3.60;;;;;;;;;;5069397;28;20201;-91
2023/06/09 08:57:56;;;;;;;3.60;3.30;;;;;;;;;;5073980;28;20209;-92
2023/06/09 09:00:24;;;;;;;3.85;3.55;;;;;;;;;;5072132;28;20214;-92
2023/06/09 09:02:51;;;;;;;7.65;3.80;;;;;;;;;;5069061;28;20205;-91
2023/06/09 09:05:19;;;;;;;3.80;3.60;;;;;;;;;;5074710;28;20219;-93
2023/06/09 09:07:47;;;;;;;4.07;3.70;;;;;;;;;;5066247;28;20286;-92
2023/06/09 09:10:14;;;;;;;5.20;3.70;;;;;;;;;;5049217;28;20230;-92
2023/06/09 09:12:50;;;;;;;3.65;3.30;;;;;;;;;;5072964;28;20210;-91
2023/06/09 09:15:17;;;;;;;5.22;3.63;;;;;;;;;;5064397;28;20225;-92
2023/06/09 09:17:46;;;;;;;3.40;3.10;;;;;;;;;;5070513;28;20211;-92
2023/06/09 09:20:14;;;;;;;3.83;3.53;;;;;;;;;;5071802;28;20206;-92
2023/06/09 09:22:45;;;;;;;4.38;3.47;;;;;;;;;;5072706;28;20226;-92
2023/06/09 09:25:21;;;;;;;4.43;3.60;;;;;;;;;;5073400;28;20227;-92
2023/06/09 09:28:00;;;;;;;3.65;3.35;;;;;;;;;;5072205;28;20211;-92
2023/06/09 09:30:41;;;;;;;4.35;3.70;;;;;;;;;;5063839;28;20202;-91
2023/06/09 09:33:09;;;;;;;3.70;3.40;;;;;;;;;;5063561;28;20210;-90
2023/06/09 09:35:38;;;;;;;3.80;3.50;;;;;;;;;;5067258;28;20203;-92
2023/06/09 09:38:05;;;;;;;3.63;3.40;;;;;;;;;;5066178;28;20211;-92
2023/06/09 09:40:33;;;;;;;3.28;3.08;;;;;;;;;;5069211;28;20264;-91
2023/06/09 09:43:03;;;;;;;3.60;3.30;;;;;;;;;;5066166;28;20195;-91
2023/06/09 09:45:37;;;;;;;3.40;3.20;;;;;;;;;;5052428;28;20226;-91
2023/06/09 09:48:11;;;;;;;3.83;3.53;;;;;;;;;;5051465;28;20206;-92
2023/06/09 09:50:39;;;;;;;3.63;3.30;;;;;;;;;;5070165;28;20294;-92
2023/06/09 09:53:07;;;;;;;3.65;3.42;;;;;;;;;;5073886;28;20237;-92
2023/06/09 09:55:35;;;;;;;3.33;3.10;;;;;;;;;;5063684;28;20238;-92
2023/06/09 09:58:06;;;;;;;3.58;3.28;;;;;;;;;;5069421;28;20289;-91
2023/06/09 10:00:35;;;;;;;3.35;2.90;;;;;;;;;;5068441;28;20187;-91
2023/06/09 10:03:05;;;;;;;8.02;3.40;;;;;;;;;;5066630;28;20230;-91
2023/06/09 10:05:33;;;;;;;3.30;3.10;;;;;;;;;;5068509;28;20261;-92
2023/06/09 10:08:02;;;;;;;4.20;3.80;;;;;;;;;;5067137;28;20202;-91
2023/06/09 10:10:29;;;;;;;5.00;3.28;;;;;;;;;;5076485;28;20249;-90
2023/06/09 10:12:59;;;;;;;3.35;2.97;;;;;;;;;;5068909;28;20232;-92
2023/06/09 10:15:28;;;;;;;3.28;3.03;;;;;;;;;;5064996;28;20187;-91
2023/06/09 10:17:57;;;;;;;3.42;3.10;;;;;;;;;;5068006;28;20203;-91
2023/06/09 10:20:25;;;;;;;3.45;3.15;;;;;;;;;;5070725;28;20202;-92
2023/06/09 10:22:53;;;;;;;3.47;2.80;;;;;;;;;;5073369;28;20211;-91
2023/06/09 10:25:22;;;;;;;2.90;2.70;;;;;;;;;;5066495;28;20203;-91
2023/06/09 10:27:51;;;;;;;3.25;3.05;;;;;;;;;;5067463;28;20210;-92
2023/06/09 10:30:20;;;;;;;2.97;2.78;;;;;;;;;;5067216;28;20199;-91
2023/06/09 10:32:57;;;;;;;2.83;2.63;;;;;;;;;;5063052;28;20218;-93
2023/06/09 10:35:27;;;;;;;3.38;2.80;;;;;;;;;;5062387;28;20213;-91
2023/06/09 10:37:56;;;;;;;2.72;2.63;;;;;;;;;;5070547;28;20186;-91
2023/06/09 10:40:35;;;;;;;2.92;2.70;;;;;;;;;;5065269;28;20199;-90
2023/06/09 10:43:11;;;;;;;3.00;2.53;;;;;;;;;;5068596;28;20199;-90
2023/06/09 10:45:50;;;;;;;4.13;2.55;;;;;;;;;;5043594;28;20234;-91
2023/06/09 10:48:32;;;;;;;2.92;2.72;;;;;;;;;;5060412;28;20210;-91
2023/06/09 10:51:15;;;;;;;3.92;2.70;;;;;;;;;;5062875;28;20227;-91
2023/06/09 10:54:15;;;;;;;3.38;3.08;;;;;;;;;;5066746;28;20202;-90
2023/06/09 10:56:45;;;;;;;2.92;2.80;;;;;;;;;;5070412;28;20228;-91
2023/06/09 10:59:29;;;;;;;3.63;3.20;;;;;;;;;;5073633;28;20280;-91
2023/06/09 11:02:18;;;;;;;3.42;3.13;;;;;;;;;;5063597;28;20195;-91
2023/06/09 11:04:53;;;;;;;3.95;3.30;;;;;;;;;;5064492;28;20290;-90
2023/06/09 11:07:21;;;;;;;3.38;3.05;;;;;;;;;;5057864;28;20245;-91
2023/06/09 11:10:08;;;;;;;3.33;3.05;;;;;;;;;;5064944;28;20206;-91
2023/06/09 11:12:46;;;;;;;2.97;2.80;;;;;;;;;;5054641;28;20213;-90
2023/06/09 11:15:15;;;;;;;2.70;2.50;;;;;;;;;;5066304;28;20211;-90
2023/06/09 11:17:43;;;;;;;3.53;3.10;;;;;;;;;;5066001;28;20202;-90
2023/06/09 11:20:14;;;;;;;4.55;3.35;;;;;;;;;;5066675;28;20233;-91
2023/06/09 11:23:00;;;;;;;3.00;2.80;;;;;;;;;;5068998;28;20233;-91
2023/06/09 11:25:40;;;;;;;3.33;3.10;;;;;;;;;;5067219;28;20198;-90
2023/06/09 11:28:20;;;;;;;3.25;3.03;;;;;;;;;;5055237;28;20230;-90
2023/06/09 11:31:03;;;;;;;4.13;3.28;;;;;;;;;;5069275;28;20202;-91
2023/06/09 11:33:55;;;;;;;4.60;3.03;;;;;;;;;;5065509;28;20210;-91
2023/06/09 11:36:27;;;;;;;3.42;3.13;;;;;;;;;;5052987;28;20199;-91
2023/06/09 11:39:00;;;;;;;3.30;3.10;;;;;;;;;;5068504;28;20285;-91
2023/06/09 11:41:28;;;;;;;3.78;3.20;;;;;;;;;;5039987;28;20202;-92
2023/06/09 11:43:57;;;;;;;4.20;3.22;;;;;;;;;;5058263;28;20202;-91
2023/06/09 11:46:25;;;;;;;2.97;2.70;;;;;;;;;;5061550;28;20270;-91
2023/06/09 11:49:07;;;;;;;5.00;3.17;;;;;;;;;;5061217;28;20211;-90
2023/06/09 11:51:54;;;;;;;3.33;3.03;;;;;;;;;;5073171;28;20293;-90
2023/06/09 11:54:22;;;;;;;3.63;3.00;;;;;;;;;;5064683;28;20211;-90
2023/06/09 11:56:51;;;;;;;3.17;2.88;;;;;;;;;;5065165;28;20210;-91
2023/06/09 11:59:24;;;;;;;3.35;3.15;;;;;;;;;;5068113;28;20206;-90
2023/06/09 12:01:51;;;;;;;3.53;3.22;;;;;;;;;;5069405;28;20211;-91
2023/06/09 12:04:19;;;;;;;2.97;2.78;;;;;;;;;;5049423;28;20230;-90
2023/06/09 12:06:48;;;;;;;3.55;3.35;;;;;;;;;;5068703;28;20223;-90
2023/06/09 12:09:20;;;;;;;3.47;3.20;;;;;;;;;;5067473;28;20203;-91
2023/06/09 12:11:52;;;;;;;4.38;2.90;;;;;;;;;;5053732;28;20212;-90
2023/06/09 12:14:23;;;;;;;3.10;2.90;;;;;;;;;;5067851;28;20235;-90
2023/06/09 12:16:51;;;;;;;3.10;2.90;;;;;;;;;;5061754;28;20217;-90
2023/06/09 12:19:19;;;;;;;3.03;2.78;;;;;;;;;;5063205;28;20241;-91
2023/06/09 12:21:48;;;;;;;3.30;3.10;;;;;;;;;;5065896;28;20198;-92
2023/06/09 12:24:16;;;;;;;2.90;2.70;;;;;;;;;;5073975;28;20209;-91
2023/06/09 12:26:44;;;;;;;3.10;2.90;;;;;;;;;;5071646;28;20238;-91
2023/06/09 12:29:13;;;;;;;3.20;2.90;;;;;;;;;;5066013;28;20203;-91
2023/06/09 12:31:47;;;;;;;3.05;2.85;;;;;;;;;;5049138;28;20199;-90
2023/06/09 12:34:29;;;;;;;3.10;2.88;;;;;;;;;;5065875;28;20202;-90
2023/06/09 12:36:57;;;;;;;3.25;3.05;;;;;;;;;;5070177;28;20202;-90
2023/06/09 12:39:26;;;;;;;3.38;3.08;;;;;;;;;;5072649;28;20207;-90
2023/06/09 12:41:53;;;;;;;4.82;3.30;;;;;;;;;;5066949;28;20206;-90
2023/06/09 12:44:24;;;;;;;5.13;2.92;;;;;;;;;;5070676;28;20237;-90
2023/06/09 12:46:58;;;;;;;3.63;2.92;;;;;;;;;;5068477;28;20227;-90
2023/06/09 12:49:31;;;;;;;3.92;2.90;;;;;;;;;;5063072;28;20206;-90
2023/06/09 12:51:59;;;;;;;3.53;3.25;;;;;;;;;;5072214;28;20203;-91
2023/06/09 12:54:27;;;;;;;2.80;2.60;;;;;;;;;;5074259;28;20210;-91
2023/06/09 12:56:55;;;;;;;2.65;2.55;;;;;;;;;;5057149;28;20198;-91
2023/06/09 12:59:22;;;;;;;3.20;3.00;;;;;;;;;;5069434;28;20210;-90
2023/06/09 13:01:52;;;;;;;3.30;2.80;;;;;;;;;;5066447;28;20213;-90
2023/06/09 13:04:22;;;;;;;3.10;2.90;;;;;;;;;;5064900;28;20199;-90
2023/06/09 13:06:49;;;;;;;3.80;2.72;;;;;;;;;;5079849;28;20218;-90
2023/06/09 13:09:17;;;;;;;3.22;2.97;;;;;;;;;;5073135;28;20282;-90
2023/06/09 13:11:44;;;;;;;3.20;2.97;;;;;;;;;;5065689;28;20213;-90
2023/06/09 13:14:11;;;;;;;3.38;2.97;;;;;;;;;;5068268;28;20203;-92
2023/06/09 13:16:39;;;;;;;3.10;2.90;;;;;;;;;;5076701;28;20217;-91
2023/06/09 13:19:07;;;;;;;4.10;3.08;;;;;;;;;;5070846;28;20237;-91
2023/06/09 13:21:37;;;;;;;3.78;3.15;;;;;;;;;;5065354;28;20199;-91
2023/06/09 13:24:04;;;;;;;6.63;4.20;;;;;;;;;;5070605;28;20293;-91
2023/06/09 13:26:32;;;;;;;3.30;2.92;;;;;;;;;;5065155;28;20222;-90
2023/06/09 13:29:00;;;;;;;3.17;2.97;;;;;;;;;;5069484;28;20195;-91
2023/06/09 13:31:28;;;;;;;4.28;2.90;;;;;;;;;;5065212;28;20195;-91
2023/06/09 13:33:56;;;;;;;2.88;2.67;;;;;;;;;;5069497;28;20249;-91
2023/06/09 13:36:24;;;;;;;4.13;2.67;;;;;;;;;;5068095;28;20198;-92
2023/06/09 13:38:56;;;;;;;3.00;2.80;;;;;;;;;;5073646;28;20209;-91
2023/06/09 13:41:23;;;;;;;4.65;3.10;;;;;;;;;;5066054;28;20292;-91
2023/06/09 13:43:51;;;;;;;3.90;2.63;;;;;;;;;;5064726;28;20203;-91
2023/06/09 13:46:18;;;;;;;3.15;2.85;;;;;;;;;;5070543;28;20214;-92
2023/06/09 13:48:45;;;;;;;3.33;2.90;;;;;;;;;;5063806;28;20192;-89
2023/06/09 13:51:12;;;;;;;4.20;2.92;;;;;;;;;;5064293;28;20194;-92
2023/06/09 13:53:40;;;;;;;4.05;2.92;;;;;;;;;;5060708;28;20248;-92
2023/06/09 13:56:09;;;;;;;4.00;2.97;;;;;;;;;;5052023;28;20207;-91
2023/06/09 13:58:37;;;;;;;3.15;2.92;;;;;;;;;;5071313;28;20202;-92
2023/06/09 14:01:04;;;;;;;3.85;2.85;;;;;;;;;;5071643;28;20217;-91
2023/06/09 14:03:32;;;;;;;3.25;2.90;;;;;;;;;;5065622;28;20206;-92
2023/06/09 14:05:59;;;;;;;3.15;2.95;;;;;;;;;;5072563;28;20199;-92
2023/06/09 14:08:28;;;;;;;3.53;3.00;;;;;;;;;;5068411;28;20235;-89
2023/06/09 14:10:55;;;;;;;3.17;3.00;;;;;;;;;;5072244;28;20206;-90
2023/06/09 14:13:24;;;;;;;4.40;2.97;;;;;;;;;;5066719;28;20203;-92
2023/06/09 14:15:51;;;;;;;3.30;3.10;;;;;;;;;;5051266;28;20288;-91
2023/06/09 14:18:20;;;;;;;3.13;2.83;;;;;;;;;;5066473;28;20234;-91
2023/06/09 14:20:47;;;;;;;3.05;2.85;;;;;;;;;;5072043;28;20203;-91
2023/06/09 14:23:16;;;;;;;3.08;2.88;;;;;;;;;;5068844;28;20203;-91
2023/06/09 14:25:43;;;;;;;5.38;2.90;;;;;;;;;;5068287;28;20195;-91
2023/06/09 14:28:10;;;;;;;3.10;2.90;;;;;;;;;;5045957;28;20300;-91
2023/06/09 14:30:39;;;;;;;3.78;2.90;;;;;;;;;;5068408;28;20285;-90
2023/06/09 14:33:07;;;;;;;3.13;2.92;;;;;;;;;;5071398;28;20194;-91
2023/06/09 14:35:34;;;;;;;3.03;2.83;;;;;;;;;;5070095;28;20203;-91
2023/06/09 14:38:02;;;;;;;3.28;2.95;;;;;;;;;;5066798;28;20266;-91
2023/06/09 14:40:34;;;;;;;3.45;3.03;;;;;;;;;;5065539;28;20199;-92
2023/06/09 14:43:02;;;;;;;4.85;2.80;;;;;;;;;;5069178;28;20203;-91
2023/06/09 14:45:30;;;;;;;3.40;3.10;;;;;;;;;;5066307;28;20191;-91
2023/06/09 14:48:00;;;;;;;3.13;2.92;;;;;;;;;;5069939;28;20230;-91
2023/06/09 14:50:29;;;;;;;4.18;3.20;;;;;;;;;;5063922;28;20237;-91
2023/06/09 14:52:57;;;;;;;6.75;3.13;;;;;;;;;;5067162;28;20293;-91
2023/06/09 14:55:26;;;;;;;2.97;2.78;;;;;;;;;;5069765;28;20205;-91